Time;durP1;ratioP1;P1;durP2;ratioP2;P2;SDS_P1;SDS_P2;PMS_P1;PMS_P2;Temp;Humidity;BMP_temperature;BMP_pressure;BME280_temperature;BME280_humidity;BME280_pressure;Samples;Min_cycle;Max_cycle;Signal;HPM_P1;HPM_P2
2022/07/10 00:00:04;;;;;;;3.00;1.30;;;19.10;65.50;;;;;;5025681;28;20025;-69
2022/07/10 00:02:30;;;;;;;4.45;1.10;;;19.20;66.50;;;;;;5044893;28;20558;-69
2022/07/10 00:04:55;;;;;;;2.10;1.02;;;19.20;66.20;;;;;;5044981;28;20025;-69
2022/07/10 00:07:20;;;;;;;6.32;1.33;;;19.10;65.80;;;;;;5025236;28;20029;-65
2022/07/10 00:09:46;;;;;;;2.38;1.33;;;18.90;65.60;;;;;;5024326;28;20618;-64
2022/07/10 00:12:12;;;;;;;1.92;1.10;;;18.90;65.00;;;;;;5023713;28;20031;-69
2022/07/10 00:14:37;;;;;;;7.43;1.55;;;19.00;66.60;;;;;;5024669;28;20036;-69
2022/07/10 00:17:03;;;;;;;3.28;1.27;;;19.30;66.40;;;;;;5024252;28;20382;-67
2022/07/10 00:19:28;;;;;;;1.80;0.70;;;19.40;65.70;;;;;;5023458;28;20060;-70
2022/07/10 00:21:54;;;;;;;4.35;1.23;;;19.50;65.50;;;;;;5024470;28;20080;-69
2022/07/10 00:24:19;;;;;;;4.63;0.93;;;19.60;65.20;;;;;;5007795;28;20025;-66
2022/07/10 00:26:46;;;;;;;4.00;1.10;;;19.60;63.90;;;;;;5036396;28;20025;-68
2022/07/10 00:29:11;;;;;;;4.60;0.93;;;19.60;65.00;;;;;;5043127;28;20029;-69
2022/07/10 00:31:37;;;;;;;4.05;1.00;;;19.60;64.90;;;;;;5015739;28;20064;-68
2022/07/10 00:34:02;;;;;;;2.08;0.82;;;19.60;64.80;;;;;;5006590;28;20674;-69
2022/07/10 00:36:28;;;;;;;3.25;0.80;;;19.60;64.90;;;;;;5032476;28;20120;-69
2022/07/10 00:38:53;;;;;;;2.25;1.30;;;19.70;64.30;;;;;;5042787;28;20041;-68
2022/07/10 00:41:19;;;;;;;2.42;0.90;;;19.60;64.30;;;;;;5002725;28;20119;-66
2022/07/10 00:43:52;;;;;;;2.38;1.00;;;19.70;64.70;;;;;;5023689;28;20393;-70
2022/07/10 00:46:20;;;;;;;6.18;2.13;;;19.70;64.30;;;;;;5011759;28;20064;-68
2022/07/10 00:48:46;;;;;;;4.15;1.20;;;19.60;64.40;;;;;;5042110;28;20610;-65
2022/07/10 00:51:11;;;;;;;2.67;1.10;;;19.60;64.70;;;;;;5039661;28;20037;-68
2022/07/10 00:53:37;;;;;;;3.15;0.90;;;19.30;64.70;;;;;;4990082;28;20079;-68
2022/07/10 00:56:03;;;;;;;3.90;1.02;;;19.30;63.80;;;;;;5023724;28;20493;-65
2022/07/10 00:58:28;;;;;;;5.13;1.08;;;19.30;65.40;;;;;;5023196;28;20391;-70
2022/07/10 01:00:54;;;;;;;4.22;1.27;;;19.50;63.20;;;;;;5006125;28;20030;-68
2022/07/10 01:03:19;;;;;;;3.33;0.95;;;19.50;64.70;;;;;;5025093;28;20037;-69
2022/07/10 01:05:45;;;;;;;2.30;0.88;;;19.60;64.50;;;;;;5006743;28;20029;-68
2022/07/10 01:08:10;;;;;;;1.30;0.60;;;19.60;64.30;;;;;;5024305;28;20037;-69
2022/07/10 01:10:36;;;;;;;1.25;0.80;;;19.70;64.30;;;;;;5024481;28;20128;-68
2022/07/10 01:13:02;;;;;;;1.98;0.98;;;19.70;64.20;;;;;;5024228;28;20029;-65
2022/07/10 01:15:27;;;;;;;2.40;0.73;;;19.70;64.00;;;;;;5047500;28;20029;-66
2022/07/10 01:17:53;;;;;;;2.10;0.85;;;19.60;63.90;;;;;;5032461;28;20026;-69
2022/07/10 01:20:18;;;;;;;1.80;0.60;;;19.70;63.90;;;;;;5010532;28;20053;-68
2022/07/10 01:22:44;;;;;;;2.50;0.70;;;19.70;63.80;;;;;;5028750;28;20533;-69
2022/07/10 01:25:11;;;;;;;2.80;0.90;;;19.60;62.50;;;;;;5024783;28;20036;-66
2022/07/10 01:27:36;;;;;;;3.35;0.90;;;19.60;64.00;;;;;;5023195;28;20033;-68
2022/07/10 01:30:02;;;;;;;1.48;0.73;;;19.60;64.00;;;;;;5023435;28;20374;-68
2022/07/10 01:32:36;;;;;;;1.73;0.70;;;19.70;63.80;;;;;;5032594;28;20048;-69
2022/07/10 01:35:01;;;;;;;1.33;0.70;;;19.70;63.80;;;;;;5026556;28;20025;-69
2022/07/10 01:37:27;;;;;;;2.72;0.75;;;19.60;63.80;;;;;;5017323;28;20559;-66
2022/07/10 01:39:52;;;;;;;3.50;0.98;;;19.60;63.50;;;;;;5023319;28;20038;-69
2022/07/10 01:42:18;;;;;;;1.20;0.70;;;19.60;63.90;;;;;;5029272;28;20036;-66
2022/07/10 01:44:43;;;;;;;2.70;0.85;;;19.70;63.60;;;;;;5025553;28;20543;-67
2022/07/10 01:47:09;;;;;;;2.97;0.80;;;19.70;63.50;;;;;;5039312;28;20029;-65
2022/07/10 01:49:34;;;;;;;2.25;0.90;;;19.60;63.20;;;;;;5004854;28;20117;-68
2022/07/10 01:51:59;;;;;;;3.17;0.88;;;19.60;63.40;;;;;;5023186;28;20537;-68
2022/07/10 01:54:25;;;;;;;3.17;0.90;;;19.60;62.90;;;;;;5022842;28;20096;-65
2022/07/10 01:56:50;;;;;;;2.33;0.70;;;19.60;63.60;;;;;;5023717;28;20037;-68
2022/07/10 01:59:16;;;;;;;1.60;0.73;;;19.60;63.20;;;;;;5042230;28;20565;-69
2022/07/10 02:01:41;;;;;;;2.80;0.98;;;19.60;63.30;;;;;;5042826;28;20029;-69
2022/07/10 02:06:51;;;;;;;6.07;0.90;;;19.60;63.30;;;;;;5022980;28;20036;-69
2022/07/10 02:09:17;;;;;;;2.03;0.75;;;19.60;63.20;;;;;;5041413;28;20124;-68
2022/07/10 02:11:42;;;;;;;2.92;0.75;;;19.60;63.40;;;;;;5024926;28;20044;-69
2022/07/10 02:14:08;;;;;;;3.17;0.85;;;19.60;63.20;;;;;;5024888;28;20064;-68
2022/07/10 02:16:34;;;;;;;2.33;1.00;;;19.60;63.00;;;;;;5004585;28;20168;-69
2022/07/10 02:18:59;;;;;;;2.42;0.77;;;19.60;63.20;;;;;;5021799;28;20764;-68
2022/07/10 02:21:25;;;;;;;3.05;1.00;;;19.60;63.20;;;;;;5004801;28;20029;-68
2022/07/10 02:23:50;;;;;;;2.55;0.73;;;19.60;63.30;;;;;;5022591;28;20034;-68
2022/07/10 02:26:16;;;;;;;2.42;0.63;;;19.60;62.90;;;;;;5022086;28;20044;-69
2022/07/10 02:28:41;;;;;;;2.15;0.75;;;19.60;63.10;;;;;;5021759;28;20461;-69
2022/07/10 02:31:07;;;;;;;3.35;0.60;;;19.60;62.90;;;;;;5022359;28;20108;-66
2022/07/10 02:33:32;;;;;;;2.22;0.73;;;19.60;62.60;;;;;;5004573;28;20048;-68
2022/07/10 02:35:58;;;;;;;1.98;0.95;;;19.60;63.10;;;;;;5022426;28;20402;-67
2022/07/10 02:38:23;;;;;;;1.90;0.75;;;19.60;63.10;;;;;;5029432;28;20044;-68
2022/07/10 02:40:49;;;;;;;2.13;0.75;;;19.60;63.10;;;;;;5041795;28;20405;-69
2022/07/10 02:43:14;;;;;;;1.23;0.68;;;19.60;62.80;;;;;;5036245;28;20799;-68
2022/07/10 02:45:40;;;;;;;3.70;0.85;;;19.60;63.00;;;;;;5022487;28;20040;-69
2022/07/10 02:48:06;;;;;;;3.25;0.98;;;19.40;63.20;;;;;;5025613;28;20021;-69
2022/07/10 02:50:31;;;;;;;3.60;0.80;;;19.50;63.20;;;;;;5041819;28;20644;-68
2022/07/10 02:52:57;;;;;;;3.30;1.00;;;19.50;63.30;;;;;;5039506;28;20029;-69
2022/07/10 02:55:22;;;;;;;1.92;0.50;;;19.50;62.40;;;;;;5022855;28;20449;-69
2022/07/10 02:57:47;;;;;;;3.75;0.73;;;19.60;63.10;;;;;;5021834;28;20037;-68
2022/07/10 03:00:13;;;;;;;2.33;0.70;;;19.60;62.60;;;;;;5041590;28;20100;-68
2022/07/10 03:02:39;;;;;;;3.03;1.23;;;19.60;62.80;;;;;;5041990;28;20629;-65
2022/07/10 03:05:05;;;;;;;3.03;0.75;;;19.60;62.70;;;;;;5006131;28;20544;-67
2022/07/10 03:07:30;;;;;;;3.55;0.90;;;19.60;62.80;;;;;;5004023;28;20056;-70
2022/07/10 03:09:55;;;;;;;1.63;0.63;;;19.60;62.80;;;;;;5038199;28;20021;-68
2022/07/10 03:12:21;;;;;;;1.50;0.70;;;19.60;62.80;;;;;;5043959;28;20091;-66
2022/07/10 03:14:47;;;;;;;2.60;0.60;;;19.60;62.10;;;;;;5031083;28;20022;-68
2022/07/10 03:17:12;;;;;;;1.70;0.65;;;19.60;62.10;;;;;;5007958;28;20030;-68
2022/07/10 03:19:38;;;;;;;3.03;0.70;;;19.60;62.80;;;;;;5026007;28;20040;-68
2022/07/10 03:22:03;;;;;;;2.78;0.90;;;19.60;62.80;;;;;;5007798;28;20509;-66
2022/07/10 03:24:29;;;;;;;1.52;0.70;;;19.60;62.30;;;;;;4991656;28;20045;-69
2022/07/10 03:26:54;;;;;;;3.75;0.95;;;19.60;62.90;;;;;;5008038;28;20092;-68
2022/07/10 03:29:20;;;;;;;2.22;1.00;;;19.60;63.00;;;;;;5025828;28;20045;-68
2022/07/10 03:31:46;;;;;;;4.55;0.85;;;19.60;62.80;;;;;;5021627;28;20114;-68
2022/07/10 03:34:11;;;;;;;1.60;0.60;;;19.70;62.80;;;;;;5026429;28;20026;-69
2022/07/10 03:36:36;;;;;;;1.73;0.60;;;19.60;62.70;;;;;;5007748;28;20041;-66
2022/07/10 03:39:02;;;;;;;2.72;0.65;;;19.60;62.90;;;;;;5007438;28;20040;-68
2022/07/10 03:41:27;;;;;;;1.23;0.70;;;19.60;62.90;;;;;;5025603;28;20389;-69
2022/07/10 03:43:53;;;;;;;2.05;0.75;;;19.60;62.90;;;;;;5010696;28;20036;-69
2022/07/10 03:46:18;;;;;;;3.10;1.02;;;19.60;62.80;;;;;;5045139;28;20022;-69
2022/07/10 03:48:44;;;;;;;2.50;0.63;;;19.60;62.00;;;;;;5026035;28;20080;-68
2022/07/10 03:51:09;;;;;;;3.42;0.70;;;19.60;62.90;;;;;;5024797;28;20138;-67
2022/07/10 03:53:36;;;;;;;2.38;0.80;;;19.60;62.90;;;;;;5025320;28;20034;-69
2022/07/10 03:56:01;;;;;;;2.85;1.20;;;19.60;62.20;;;;;;5025543;28;20767;-66
2022/07/10 03:58:27;;;;;;;2.05;0.63;;;19.50;62.80;;;;;;5006083;28;20049;-67
2022/07/10 04:00:52;;;;;;;3.45;0.95;;;19.50;62.90;;;;;;5025459;28;20179;-66
2022/07/10 04:03:18;;;;;;;3.33;1.13;;;19.50;62.80;;;;;;5024772;28;20566;-68
2022/07/10 04:05:43;;;;;;;2.08;1.00;;;19.60;62.80;;;;;;5025865;28;20494;-68
2022/07/10 04:08:09;;;;;;;1.48;0.70;;;19.50;62.20;;;;;;5006670;28;20091;-66
2022/07/10 04:10:35;;;;;;;3.05;0.70;;;19.50;62.80;;;;;;5025193;28;20033;-67
2022/07/10 04:13:01;;;;;;;2.78;0.73;;;19.50;62.70;;;;;;5025443;28;20125;-66
2022/07/10 04:15:26;;;;;;;1.27;0.60;;;19.50;62.70;;;;;;5036548;28;20565;-69
2022/07/10 04:17:52;;;;;;;2.67;0.73;;;19.50;62.70;;;;;;5027413;28;20520;-70
2022/07/10 04:20:18;;;;;;;2.63;0.75;;;19.50;62.50;;;;;;5034589;28;20721;-65
2022/07/10 04:22:43;;;;;;;4.15;0.75;;;19.50;62.00;;;;;;5023341;28;20033;-69
2022/07/10 04:25:09;;;;;;;3.90;1.00;;;19.50;61.80;;;;;;5013595;28;20021;-69
2022/07/10 04:27:34;;;;;;;4.68;0.70;;;19.50;62.50;;;;;;5009778;28;20021;-69
2022/07/10 04:30:00;;;;;;;1.48;0.50;;;19.40;61.60;;;;;;5038055;28;20025;-68
2022/07/10 04:32:27;;;;;;;3.17;0.98;;;19.40;62.00;;;;;;5006675;28;20032;-66
2022/07/10 04:34:53;;;;;;;1.75;0.93;;;19.40;62.40;;;;;;5006673;28;20497;-69
2022/07/10 04:37:18;;;;;;;3.90;1.08;;;19.40;62.30;;;;;;5024092;28;20026;-68
2022/07/10 04:39:44;;;;;;;3.33;0.75;;;19.40;62.20;;;;;;5025654;28;20037;-68
2022/07/10 04:42:09;;;;;;;2.45;0.82;;;19.40;60.90;;;;;;5009507;28;20247;-66
2022/07/10 04:44:36;;;;;;;2.75;0.70;;;19.40;62.40;;;;;;5009766;28;20489;-67
2022/07/10 04:47:02;;;;;;;4.65;1.02;;;19.30;62.20;;;;;;5007482;28;20029;-68
2022/07/10 04:49:28;;;;;;;2.58;0.90;;;19.30;61.20;;;;;;4990665;28;20383;-69
2022/07/10 04:51:54;;;;;;;4.53;0.90;;;19.10;61.60;;;;;;5025551;28;20457;-69
2022/07/10 04:54:19;;;;;;;3.65;0.93;;;19.10;62.90;;;;;;5025469;28;20258;-68
2022/07/10 04:56:45;;;;;;;2.08;0.85;;;19.20;62.60;;;;;;5009088;28;20048;-66
2022/07/10 04:59:11;;;;;;;2.20;0.70;;;19.30;62.50;;;;;;5005553;28;20747;-69
2022/07/10 05:01:39;;;;;;;3.05;1.10;;;19.30;62.50;;;;;;5020892;28;20037;-69
2022/07/10 05:04:05;;;;;;;2.47;0.70;;;19.40;62.10;;;;;;5043458;28;20021;-68
2022/07/10 05:06:30;;;;;;;2.45;0.68;;;19.40;61.80;;;;;;5012388;28;20029;-68
2022/07/10 05:08:56;;;;;;;4.07;0.70;;;19.30;61.40;;;;;;5023812;28;20108;-68
2022/07/10 05:11:22;;;;;;;1.73;0.70;;;19.40;62.20;;;;;;5018636;28;20108;-67
2022/07/10 05:13:48;;;;;;;2.70;0.82;;;19.30;61.70;;;;;;5026560;28;20029;-66
2022/07/10 05:16:14;;;;;;;5.93;1.13;;;19.30;61.60;;;;;;4999706;28;20037;-68
2022/07/10 05:18:40;;;;;;;3.63;0.70;;;19.20;59.80;;;;;;5005782;28;20710;-68
2022/07/10 05:21:05;;;;;;;4.60;0.93;;;19.10;61.30;;;;;;5031278;28;20033;-68
2022/07/10 05:23:31;;;;;;;3.17;0.68;;;19.20;62.20;;;;;;5026066;28;20029;-68
2022/07/10 05:25:56;;;;;;;3.65;0.75;;;19.30;62.00;;;;;;5037507;28;20682;-67
2022/07/10 05:28:22;;;;;;;3.13;1.35;;;19.20;61.70;;;;;;5006962;28;20033;-68
2022/07/10 05:30:48;;;;;;;1.23;0.80;;;19.30;61.70;;;;;;5009583;28;20127;-66
2022/07/10 05:33:14;;;;;;;3.58;0.60;;;19.30;61.60;;;;;;5043152;28;20040;-65
2022/07/10 05:35:40;;;;;;;7.50;1.48;;;19.30;61.20;;;;;;5023060;28;20033;-68
2022/07/10 05:38:05;;;;;;;2.10;0.90;;;19.20;61.50;;;;;;5005311;28;20409;-69
2022/07/10 05:40:31;;;;;;;3.42;1.00;;;19.30;61.30;;;;;;5023405;28;20036;-68
2022/07/10 05:42:57;;;;;;;3.92;0.80;;;19.30;61.00;;;;;;5042924;28;20104;-69
2022/07/10 05:45:22;;;;;;;2.35;0.95;;;19.20;61.30;;;;;;5043413;28;20032;-68
2022/07/10 05:47:48;;;;;;;4.30;0.70;;;19.20;61.00;;;;;;5025034;28;20036;-68
2022/07/10 05:50:13;;;;;;;3.13;0.93;;;19.00;61.80;;;;;;5005939;28;20025;-69
2022/07/10 05:52:39;;;;;;;3.60;0.80;;;19.00;61.70;;;;;;5007895;28;20033;-67
2022/07/10 05:55:05;;;;;;;4.03;0.70;;;18.90;59.20;;;;;;5008375;28;20029;-66
2022/07/10 05:57:31;;;;;;;3.63;0.82;;;18.80;61.90;;;;;;5011932;28;20034;-68
2022/07/10 05:59:57;;;;;;;2.83;1.05;;;18.80;61.40;;;;;;5010794;28;20175;-68
2022/07/10 06:02:22;;;;;;;4.03;1.05;;;18.20;61.70;;;;;;5032360;28;20038;-68
2022/07/10 06:04:48;;;;;;;10.05;1.17;;;18.40;63.00;;;;;;5029016;28;20040;-68
2022/07/10 06:07:14;;;;;;;2.88;0.88;;;18.60;60.40;;;;;;5025730;28;20026;-67
2022/07/10 06:09:40;;;;;;;2.53;0.60;;;18.40;60.50;;;;;;5031514;28;20153;-67
2022/07/10 06:12:05;;;;;;;5.20;0.90;;;18.10;62.20;;;;;;5057957;28;20025;-68
2022/07/10 06:14:31;;;;;;;4.22;1.00;;;17.80;62.80;;;;;;5045908;28;20017;-67
2022/07/10 06:16:56;;;;;;;1.55;0.57;;;18.00;62.60;;;;;;5059480;28;20030;-65
2022/07/10 06:19:22;;;;;;;1.60;0.70;;;17.70;63.90;;;;;;5025659;28;20030;-67
2022/07/10 06:21:47;;;;;;;4.38;1.13;;;17.70;64.90;;;;;;5023130;28;20575;-67
2022/07/10 06:24:13;;;;;;;4.05;0.73;;;17.80;64.40;;;;;;5022407;28;20112;-67
2022/07/10 06:26:38;;;;;;;5.57;0.77;;;18.00;64.50;;;;;;5008523;28;20025;-68
2022/07/10 06:29:04;;;;;;;5.60;0.70;;;18.30;64.30;;;;;;5042176;28;20036;-68
2022/07/10 06:31:29;;;;;;;3.03;0.80;;;18.40;63.70;;;;;;5023423;28;20025;-69
2022/07/10 06:33:55;;;;;;;5.35;1.23;;;18.60;63.60;;;;;;5023331;28;20080;-68
2022/07/10 06:36:20;;;;;;;5.47;0.90;;;18.40;63.60;;;;;;5022629;28;20056;-65
2022/07/10 06:38:46;;;;;;;5.55;1.40;;;18.40;64.20;;;;;;5021786;28;20053;-68
2022/07/10 06:41:11;;;;;;;5.05;0.90;;;18.60;63.80;;;;;;5022438;28;20145;-69
2022/07/10 06:43:37;;;;;;;6.10;0.98;;;18.80;63.00;;;;;;5022879;28;20029;-68
2022/07/10 06:46:02;;;;;;;3.95;0.82;;;18.80;63.70;;;;;;5025325;28;20578;-69
2022/07/10 06:48:28;;;;;;;5.70;1.63;;;18.80;63.00;;;;;;4996297;28;20048;-68
2022/07/10 06:50:53;;;;;;;2.15;0.70;;;18.70;63.20;;;;;;5026670;28;20033;-68
2022/07/10 06:53:23;;;;;;;2.53;1.08;;;18.80;63.40;;;;;;5039654;28;20040;-69
2022/07/10 06:55:50;;;;;;;4.30;1.23;;;18.90;63.20;;;;;;5029250;28;20032;-69
2022/07/10 06:58:15;;;;;;;7.65;1.40;;;18.90;62.80;;;;;;5033455;28;20069;-69
2022/07/10 07:00:41;;;;;;;5.05;0.80;;;18.90;63.00;;;;;;5026295;28;20028;-70
2022/07/10 07:03:06;;;;;;;6.18;1.10;;;19.00;63.00;;;;;;5037360;28;20464;-69
2022/07/10 07:05:32;;;;;;;6.68;0.93;;;19.00;62.60;;;;;;5029402;28;20051;-67
2022/07/10 07:07:57;;;;;;;5.93;1.15;;;19.00;63.60;;;;;;5038174;28;20052;-66
2022/07/10 07:10:23;;;;;;;7.93;0.95;;;18.80;63.00;;;;;;5010054;28;20498;-68
2022/07/10 07:12:48;;;;;;;4.40;0.95;;;18.80;64.10;;;;;;5026781;28;20021;-67
2022/07/10 07:15:16;;;;;;;6.43;1.42;;;19.00;63.90;;;;;;5026548;28;20104;-66
2022/07/10 07:17:57;;;;;;;2.50;0.90;;;19.00;62.80;;;;;;5007601;28;20032;-65
2022/07/10 07:23:10;;;;;;;3.20;0.93;;;18.70;63.80;;;;;;5010810;28;20036;-66
2022/07/10 07:25:36;;;;;;;3.42;0.70;;;18.60;63.70;;;;;;5008101;28;20105;-65
2022/07/10 07:28:02;;;;;;;6.95;1.17;;;18.60;62.80;;;;;;5030613;28;20025;-67
2022/07/10 07:30:27;;;;;;;3.30;0.80;;;18.50;64.00;;;;;;5044784;28;20075;-67
2022/07/10 07:32:52;;;;;;;3.20;0.77;;;18.60;63.80;;;;;;5041109;28;20022;-65
2022/07/10 07:35:18;;;;;;;2.67;0.85;;;18.40;62.90;;;;;;5025011;28;20581;-65
2022/07/10 07:37:45;;;;;;;4.80;1.05;;;18.20;62.80;;;;;;5027879;28;20025;-64
2022/07/10 07:40:13;;;;;;;5.00;1.13;;;18.20;65.10;;;;;;5045020;28;20436;-66
2022/07/10 07:42:38;;;;;;;3.75;1.00;;;18.50;64.50;;;;;;5026058;28;20035;-65
2022/07/10 07:45:05;;;;;;;4.57;1.05;;;18.50;63.40;;;;;;5025300;28;20033;-66
2022/07/10 07:47:31;;;;;;;3.88;1.10;;;18.50;64.30;;;;;;5008391;28;20083;-65
2022/07/10 07:49:56;;;;;;;3.60;1.15;;;17.70;64.20;;;;;;5026420;28;20478;-65
2022/07/10 07:52:22;;;;;;;4.95;1.35;;;17.80;65.50;;;;;;5011232;28;20049;-64
2022/07/10 07:54:48;;;;;;;7.03;1.15;;;18.10;66.00;;;;;;5010137;28;20401;-65
2022/07/10 07:57:14;;;;;;;4.78;1.05;;;17.90;66.70;;;;;;5006639;28;20232;-66
2022/07/10 07:59:39;;;;;;;3.13;1.08;;;18.00;65.20;;;;;;5007442;28;20949;-65
2022/07/10 08:02:05;;;;;;;3.22;1.13;;;18.20;64.80;;;;;;5024987;28;20076;-66
2022/07/10 08:04:31;;;;;;;7.07;2.20;;;18.00;64.10;;;;;;5038504;28;20057;-65
2022/07/10 08:06:56;;;;;;;6.57;0.95;;;18.10;65.10;;;;;;5045189;28;20079;-67
2022/07/10 08:09:22;;;;;;;6.70;1.10;;;18.00;65.90;;;;;;5032107;28;21683;-66
2022/07/10 08:11:47;;;;;;;5.60;1.30;;;17.70;65.90;;;;;;5025320;28;20029;-68
2022/07/10 08:14:14;;;;;;;4.35;0.90;;;17.70;63.60;;;;;;5034616;28;20033;-68
2022/07/10 08:16:39;;;;;;;6.65;1.10;;;17.20;65.90;;;;;;5026636;28;20056;-69
2022/07/10 08:19:05;;;;;;;13.10;1.70;;;17.10;66.50;;;;;;5017273;28;20035;-68
2022/07/10 08:21:31;;;;;;;8.45;1.92;;;17.60;70.10;;;;;;5006739;28;20083;-69
2022/07/10 08:23:57;;;;;;;9.63;1.80;;;18.20;65.90;;;;;;5023923;28;20030;-70
2022/07/10 08:26:22;;;;;;;9.25;1.90;;;18.10;67.10;;;;;;5025091;28;20032;-70
2022/07/10 08:28:48;;;;;;;14.27;2.67;;;18.40;66.40;;;;;;5010395;28;20036;-68
2022/07/10 08:31:13;;;;;;;17.48;2.40;;;18.50;66.80;;;;;;5009596;28;20029;-69
2022/07/10 08:33:39;;;;;;;11.10;1.98;;;18.80;66.40;;;;;;5041670;28;20025;-69
2022/07/10 08:36:04;;;;;;;16.92;2.30;;;18.70;66.10;;;;;;5023922;28;20032;-69
2022/07/10 08:38:30;;;;;;;14.82;2.55;;;18.80;65.60;;;;;;5023021;28;20422;-69
2022/07/10 08:40:58;;;;;;;16.80;2.40;;;18.70;65.00;;;;;;5026519;28;20047;-68
2022/07/10 08:43:24;;;;;;;14.32;2.80;;;18.70;65.30;;;;;;5000816;28;20116;-68
2022/07/10 08:45:50;;;;;;;15.45;2.13;;;18.60;66.80;;;;;;4991123;28;20126;-67
2022/07/10 08:48:18;;;;;;;18.48;2.83;;;18.80;65.60;;;;;;5023874;28;20022;-68
2022/07/10 08:50:44;;;;;;;12.77;2.08;;;18.90;64.20;;;;;;5023507;28;20029;-67
2022/07/10 08:53:13;;;;;;;16.25;2.55;;;18.40;63.90;;;;;;5026021;28;20685;-67
2022/07/10 08:55:39;;;;;;;10.10;2.40;;;18.10;66.60;;;;;;4993443;28;20516;-69
2022/07/10 08:58:04;;;;;;;17.52;2.13;;;18.20;65.60;;;;;;5005607;28;20033;-66
2022/07/10 09:00:30;;;;;;;10.50;2.20;;;18.50;66.90;;;;;;5019960;28;20401;-66
2022/07/10 09:02:56;;;;;;;17.95;2.42;;;18.60;66.00;;;;;;5029931;28;20108;-67
2022/07/10 09:05:23;;;;;;;7.28;1.83;;;18.60;66.90;;;;;;4998780;28;20060;-67
2022/07/10 09:07:48;;;;;;;17.42;2.50;;;18.80;66.40;;;;;;5006851;28;20025;-70
2022/07/10 09:10:14;;;;;;;12.88;2.72;;;18.90;67.00;;;;;;5015582;28;20033;-70
2022/07/10 09:12:50;;;;;;;17.52;2.10;;;18.60;66.10;;;;;;5025958;28;20021;-68
2022/07/10 09:15:21;;;;;;;14.18;1.83;;;18.80;67.00;;;;;;4997975;28;20497;-67
2022/07/10 09:17:57;;;;;;;9.15;2.03;;;19.00;65.80;;;;;;5006886;28;20140;-67
2022/07/10 09:20:33;;;;;;;19.77;3.05;;;18.60;62.10;;;;;;5033647;28;20037;-68
2022/07/10 09:23:09;;;;;;;15.88;2.20;;;18.90;67.40;;;;;;5010029;28;20029;-70
2022/07/10 09:25:34;;;;;;;9.25;1.70;;;18.90;66.30;;;;;;4983534;28;20029;-69
2022/07/10 09:28:05;;;;;;;9.23;1.63;;;19.10;65.50;;;;;;5038937;28;20468;-69
2022/07/10 09:30:37;;;;;;;23.35;2.30;;;18.90;62.50;;;;;;5025942;28;20032;-70
2022/07/10 09:33:25;;;;;;;17.27;3.20;;;18.70;65.60;;;;;;5025810;28;20031;-70
2022/07/10 09:36:11;;;;;;;9.43;1.40;;;18.60;67.10;;;;;;5014321;28;20109;-68
2022/07/10 09:38:42;;;;;;;11.25;2.42;;;18.80;64.70;;;;;;5005149;28;20029;-65
2022/07/10 09:41:15;;;;;;;15.50;1.90;;;18.80;66.70;;;;;;5036667;28;20677;-69
2022/07/10 09:43:58;;;;;;;13.80;2.65;;;18.80;67.60;;;;;;5043014;28;20040;-70
2022/07/10 09:46:36;;;;;;;14.38;2.05;;;19.00;67.00;;;;;;5010226;28;20032;-70
2022/07/10 09:49:13;;;;;;;11.57;1.88;;;19.20;66.60;;;;;;5005391;28;20040;-69
2022/07/10 09:51:42;;;;;;;17.67;2.50;;;19.30;66.90;;;;;;5022371;28;20029;-69
2022/07/10 09:54:09;;;;;;;12.60;2.35;;;19.10;66.80;;;;;;5025697;28;20036;-67
2022/07/10 09:56:56;;;;;;;14.45;3.33;;;19.10;67.50;;;;;;5027393;28;20099;-65
2022/07/10 09:59:21;;;;;;;20.38;2.60;;;19.50;68.80;;;;;;5005176;28;20041;-70
2022/07/10 10:01:51;;;;;;;22.00;2.58;;;19.70;69.20;;;;;;5022719;28;20053;-69
2022/07/10 10:04:19;;;;;;;14.82;2.95;;;19.80;69.50;;;;;;5021392;28;20623;-70
2022/07/10 10:06:56;;;;;;;13.55;2.50;;;19.80;67.00;;;;;;5021153;28;20033;-71
2022/07/10 10:09:25;;;;;;;11.75;2.90;;;19.80;67.30;;;;;;5026129;28;20116;-69
2022/07/10 10:12:04;;;;;;;16.90;2.22;;;19.80;67.40;;;;;;4994601;28;20028;-71
2022/07/10 10:14:30;;;;;;;17.25;3.22;;;19.80;66.90;;;;;;5004957;28;20397;-71
2022/07/10 10:16:56;;;;;;;16.75;2.60;;;19.80;66.80;;;;;;5020476;28;20124;-71
2022/07/10 10:22:07;;;;;;;14.27;2.40;;;20.00;69.50;;;;;;5018199;28;20048;-70
2022/07/10 10:24:33;;;;;;;13.55;2.20;;;20.00;66.90;;;;;;5009654;28;20603;-70
2022/07/10 10:26:59;;;;;;;14.15;3.17;;;19.90;66.60;;;;;;5024559;28;20463;-71
2022/07/10 10:29:24;;;;;;;19.73;2.65;;;19.90;66.70;;;;;;5013034;28;20052;-68
2022/07/10 10:31:50;;;;;;;13.35;2.10;;;19.80;66.90;;;;;;5016369;28;20029;-70
2022/07/10 10:34:36;;;;;;;6.80;2.15;;;19.70;66.60;;;;;;5009625;28;20451;-69
2022/07/10 10:37:01;;;;;;;12.70;2.90;;;19.60;66.60;;;;;;5025597;28;20028;-70
2022/07/10 10:39:27;;;;;;;10.50;2.13;;;19.60;66.50;;;;;;5030357;28;20025;-69
2022/07/10 10:41:52;;;;;;;15.23;2.25;;;19.50;66.20;;;;;;5018243;28;20033;-69
2022/07/10 10:44:18;;;;;;;9.45;1.73;;;19.50;65.90;;;;;;5010465;28;20409;-69
2022/07/10 10:46:49;;;;;;;5.82;1.88;;;19.50;65.70;;;;;;5037184;28;20052;-70
2022/07/10 10:49:16;;;;;;;10.35;2.53;;;19.40;65.60;;;;;;5047047;28;20052;-70
2022/07/10 10:52:03;;;;;;;7.88;1.85;;;19.40;65.50;;;;;;5022257;28;20029;-69
2022/07/10 10:54:29;;;;;;;9.90;2.22;;;19.50;65.80;;;;;;5029251;28;20075;-68
2022/07/10 10:57:14;;;;;;;5.68;2.00;;;19.50;65.80;;;;;;5014187;28;20041;-67
2022/07/10 10:59:44;;;;;;;4.45;2.10;;;19.40;65.50;;;;;;5011588;28;20114;-69
2022/07/10 11:02:41;;;;;;;6.72;2.00;;;19.40;65.50;;;;;;5020851;28;20036;-66
2022/07/10 11:05:18;;;;;;;12.27;2.15;;;19.70;66.20;;;;;;5015532;28;20025;-63
2022/07/10 11:08:03;;;;;;;10.23;1.70;;;20.00;66.70;;;;;;5030997;28;20025;-66
2022/07/10 11:10:33;;;;;;;14.60;2.53;;;20.10;65.60;;;;;;5013213;28;20037;-67
2022/07/10 11:13:05;;;;;;;12.18;3.08;;;20.10;65.60;;;;;;5029065;28;20026;-66
2022/07/10 11:15:32;;;;;;;24.45;6.30;;;20.10;65.60;;;;;;5029046;28;20033;-68
2022/07/10 11:17:58;;;;;;;30.55;10.60;;;20.10;65.40;;;;;;5048114;28;20312;-66
2022/07/10 11:20:24;;;;;;;35.28;12.70;;;20.20;65.30;;;;;;5052367;28;20044;-67
2022/07/10 11:23:00;;;;;;;42.25;14.88;;;20.20;65.10;;;;;;5036271;28;20052;-67
2022/07/10 11:25:43;;;;;;;40.83;15.18;;;20.20;65.10;;;;;;5008346;28;20040;-66
2022/07/10 11:28:10;;;;;;;70.38;38.28;;;20.30;65.50;;;;;;5027148;28;20026;-64
2022/07/10 11:30:45;;;;;;;138.98;82.43;;;20.40;65.40;;;;;;5026936;28;20021;-66
2022/07/10 11:33:11;;;;;;;130.57;74.10;;;20.30;65.80;;;;;;5040426;28;20087;-66
2022/07/10 11:35:38;;;;;;;128.60;75.88;;;20.40;65.70;;;;;;5047555;28;20142;-65
2022/07/10 11:38:04;;;;;;;158.48;87.65;;;20.40;65.70;;;;;;5031392;28;20026;-65
2022/07/10 11:40:29;;;;;;;156.95;88.40;;;20.30;65.70;;;;;;5025754;28;20393;-66
2022/07/10 11:42:55;;;;;;;146.30;88.10;;;20.30;65.50;;;;;;5036474;28;20378;-67
2022/07/10 11:45:26;;;;;;;151.90;85.90;;;20.30;65.50;;;;;;5045577;28;20029;-66
2022/07/10 11:47:51;;;;;;;141.82;83.70;;;20.30;65.40;;;;;;5034254;28;20033;-66
2022/07/10 11:50:17;;;;;;;140.10;82.60;;;20.20;66.00;;;;;;5025037;28;20030;-67
2022/07/10 11:52:42;;;;;;;137.10;84.38;;;20.20;65.50;;;;;;5005607;28;20025;-67
2022/07/10 11:55:21;;;;;;;127.32;79.15;;;20.20;65.50;;;;;;5007253;28;20030;-66
2022/07/10 11:57:50;;;;;;;121.18;73.20;;;20.20;65.30;;;;;;5033051;28;20037;-66
2022/07/10 12:00:29;;;;;;;120.75;71.97;;;20.10;65.30;;;;;;5044593;28;20037;-66
2022/07/10 12:02:55;;;;;;;125.60;78.70;;;20.20;65.50;;;;;;5035029;28;20042;-66
2022/07/10 12:05:35;;;;;;;123.32;76.00;;;20.20;65.80;;;;;;5024896;28;20037;-63
2022/07/10 12:08:00;;;;;;;117.25;72.82;;;20.10;65.80;;;;;;5033325;28;20025;-65
2022/07/10 12:10:30;;;;;;;113.00;69.22;;;20.10;65.80;;;;;;5026445;28;20409;-65
2022/07/10 12:13:11;;;;;;;103.72;67.50;;;20.10;66.10;;;;;;5036771;28;20060;-65
2022/07/10 12:15:41;;;;;;;109.38;67.40;;;20.00;66.10;;;;;;5007581;28;20040;-65
2022/07/10 12:18:16;;;;;;;104.35;64.43;;;20.10;66.70;;;;;;5032093;28;20029;-66
2022/07/10 12:20:45;;;;;;;91.65;59.35;;;20.10;66.60;;;;;;5026483;28;20029;-65
2022/07/10 12:23:10;;;;;;;87.95;53.60;;;20.20;66.40;;;;;;5019170;28;20033;-66
2022/07/10 12:25:36;;;;;;;83.97;50.95;;;20.20;66.70;;;;;;5024217;28;20029;-67
2022/07/10 12:28:01;;;;;;;81.85;48.47;;;20.20;66.60;;;;;;5022479;28;20029;-63
2022/07/10 12:30:44;;;;;;;77.90;47.03;;;20.10;66.80;;;;;;5025078;28;20022;-66
2022/07/10 12:33:17;;;;;;;73.03;43.80;;;20.10;66.70;;;;;;5013688;28;20025;-64
2022/07/10 12:35:53;;;;;;;59.53;39.50;;;20.20;66.60;;;;;;5006782;28;20519;-66
2022/07/10 12:38:19;;;;;;;56.30;35.28;;;20.20;66.30;;;;;;5023475;28;20026;-66
2022/07/10 12:40:45;;;;;;;60.78;36.28;;;20.10;65.90;;;;;;5023628;28;20112;-67
2022/07/10 12:43:11;;;;;;;55.65;31.63;;;20.10;65.80;;;;;;5011152;28;20684;-66
2022/07/10 12:45:37;;;;;;;50.85;30.25;;;20.10;65.40;;;;;;5043180;28;20021;-66
2022/07/10 12:48:05;;;;;;;47.17;28.70;;;20.10;65.20;;;;;;5022342;28;20167;-67
2022/07/10 12:50:31;;;;;;;41.40;25.55;;;20.10;65.00;;;;;;5007322;28;20030;-66